Time;durP1;ratioP1;P1;durP2;ratioP2;P2;SDS_P1;SDS_P2;PMS_P1;PMS_P2;Temp;Humidity;BMP_temperature;BMP_pressure;BME280_temperature;BME280_humidity;BME280_pressure;Samples;Min_cycle;Max_cycle;Signal;HPM_P1;HPM_P2
2022/07/12 00:02:05;;;;;;;2.65;1.10;;;17.60;99.90;;;;;;5065980;28;20784;-83
2022/07/12 00:04:30;;;;;;;1.67;1.27;;;17.60;99.90;;;;;;5070518;28;20039;-82
2022/07/12 00:06:56;;;;;;;3.03;1.08;;;17.60;99.90;;;;;;5047617;28;20121;-80
2022/07/12 00:09:21;;;;;;;1.20;1.10;;;17.50;99.90;;;;;;5070757;28;20044;-80
2022/07/12 00:11:47;;;;;;;1.65;1.10;;;17.50;99.90;;;;;;5062222;28;20021;-80
2022/07/12 00:14:13;;;;;;;2.13;0.90;;;17.50;99.90;;;;;;5042358;28;20558;-80
2022/07/12 00:16:39;;;;;;;1.30;1.05;;;17.60;99.90;;;;;;5071017;28;20033;-81
2022/07/12 00:19:04;;;;;;;1.48;1.30;;;17.60;99.90;;;;;;5076632;28;20040;-87
2022/07/12 00:21:30;;;;;;;1.58;1.00;;;17.60;99.90;;;;;;5054799;28;20024;-82
2022/07/12 00:23:55;;;;;;;3.15;1.10;;;17.50;99.90;;;;;;5083763;28;20039;-81
2022/07/12 00:26:21;;;;;;;2.00;1.50;;;17.50;99.90;;;;;;5063336;28;20066;-79
2022/07/12 00:28:47;;;;;;;1.60;1.08;;;17.50;99.90;;;;;;5086438;28;20031;-79
2022/07/12 00:31:13;;;;;;;1.23;1.05;;;17.40;99.90;;;;;;5071194;28;20032;-85
2022/07/12 00:33:38;;;;;;;2.35;1.63;;;17.40;99.90;;;;;;5072332;28;20024;-80
2022/07/12 00:36:04;;;;;;;2.08;1.10;;;17.40;99.90;;;;;;5058200;28;20501;-80
2022/07/12 00:38:29;;;;;;;1.55;1.30;;;17.40;99.90;;;;;;5084393;28;20032;-79
2022/07/12 00:40:55;;;;;;;1.15;1.05;;;17.40;99.90;;;;;;5074844;28;20037;-81
2022/07/12 00:43:21;;;;;;;3.72;1.70;;;17.40;99.90;;;;;;5069088;28;20036;-80
2022/07/12 00:45:46;;;;;;;1.20;0.93;;;17.40;99.90;;;;;;5069467;28;20086;-80
2022/07/12 00:48:13;;;;;;;2.35;1.40;;;17.40;99.90;;;;;;5067586;28;20489;-83
2022/07/12 00:50:38;;;;;;;2.78;1.40;;;17.40;99.90;;;;;;5036367;28;20140;-79
2022/07/12 00:53:04;;;;;;;1.30;1.13;;;17.40;99.90;;;;;;5063670;28;20100;-80
2022/07/12 00:55:29;;;;;;;1.50;1.27;;;17.40;99.90;;;;;;5062703;28;20033;-79
2022/07/12 00:57:55;;;;;;;1.23;1.00;;;17.40;99.90;;;;;;5057069;28;20028;-82
2022/07/12 01:00:26;;;;;;;1.23;1.02;;;17.40;99.90;;;;;;5066165;28;20056;-78
2022/07/12 01:02:54;;;;;;;1.45;1.15;;;17.50;99.90;;;;;;5055323;28;20044;-78
2022/07/12 01:05:19;;;;;;;1.85;1.48;;;17.40;99.90;;;;;;5067496;28;20045;-79
2022/07/12 01:07:45;;;;;;;2.22;1.67;;;17.40;99.90;;;;;;5066900;28;20237;-78
2022/07/12 01:10:11;;;;;;;1.40;1.20;;;17.40;99.90;;;;;;5066726;28;20427;-78
2022/07/12 01:12:37;;;;;;;1.65;1.30;;;17.30;99.90;;;;;;5069148;28;20025;-79
2022/07/12 01:15:05;;;;;;;2.15;1.60;;;17.30;99.90;;;;;;5060699;28;20073;-83
2022/07/12 01:17:31;;;;;;;1.60;1.50;;;17.30;99.90;;;;;;5062444;28;20055;-82
2022/07/12 01:19:58;;;;;;;2.00;1.42;;;17.20;99.90;;;;;;5053499;28;20017;-83
2022/07/12 01:22:31;;;;;;;1.95;1.50;;;17.20;99.90;;;;;;5044954;28;20159;-82
2022/07/12 01:24:57;;;;;;;4.60;1.73;;;17.20;99.90;;;;;;5044809;28;20033;-78
2022/07/12 01:27:22;;;;;;;1.60;1.38;;;17.20;99.90;;;;;;5066178;28;20459;-77
2022/07/12 01:29:48;;;;;;;1.85;1.55;;;17.10;99.90;;;;;;5072558;28;20031;-78
2022/07/12 01:32:24;;;;;;;2.72;1.67;;;17.10;99.90;;;;;;5070849;28;20032;-78
2022/07/12 01:34:54;;;;;;;2.33;1.83;;;17.00;99.90;;;;;;5060107;28;20028;-82
2022/07/12 01:37:22;;;;;;;2.00;1.80;;;17.00;99.90;;;;;;5052445;28;20064;-79
2022/07/12 01:39:53;;;;;;;1.92;1.50;;;17.00;99.90;;;;;;5048596;28;20374;-78
2022/07/12 01:42:20;;;;;;;1.90;1.70;;;16.90;99.90;;;;;;5051194;28;20083;-77
2022/07/12 01:44:46;;;;;;;2.60;2.08;;;16.90;99.90;;;;;;5034274;28;20131;-78
2022/07/12 01:47:12;;;;;;;2.05;1.70;;;16.80;99.90;;;;;;5050823;28;20163;-82
2022/07/12 01:49:37;;;;;;;1.67;1.40;;;16.80;99.90;;;;;;5060515;28;20032;-77
2022/07/12 01:52:03;;;;;;;2.78;1.70;;;16.80;99.90;;;;;;5070426;28;20024;-78
2022/07/12 01:54:29;;;;;;;2.78;2.28;;;16.80;99.90;;;;;;5047277;28;20040;-79
2022/07/12 01:56:55;;;;;;;2.40;2.15;;;16.80;99.90;;;;;;5061877;28;20099;-79
2022/07/12 01:59:21;;;;;;;2.63;2.20;;;16.80;99.90;;;;;;5057759;28;20048;-78
2022/07/12 02:01:47;;;;;;;3.03;1.90;;;16.70;99.90;;;;;;5068973;28;20036;-84
2022/07/12 02:04:16;;;;;;;2.58;1.90;;;16.70;99.90;;;;;;5069051;28;20036;-81
2022/07/12 02:06:44;;;;;;;2.55;2.15;;;16.70;99.90;;;;;;5067733;28;20048;-78
2022/07/12 02:09:09;;;;;;;3.80;2.40;;;16.70;99.90;;;;;;5066089;28;20055;-79
2022/07/12 02:11:34;;;;;;;2.40;1.92;;;16.70;99.90;;;;;;5049955;28;20032;-78
2022/07/12 02:14:00;;;;;;;2.10;1.90;;;16.60;99.90;;;;;;5033751;28;20115;-78
2022/07/12 02:16:25;;;;;;;2.05;1.85;;;16.60;99.90;;;;;;5050855;28;20037;-78
2022/07/12 02:18:51;;;;;;;1.90;1.52;;;16.50;99.90;;;;;;5075588;28;20485;-79
2022/07/12 02:21:16;;;;;;;2.88;2.28;;;16.60;99.90;;;;;;5070492;28;20052;-78
2022/07/12 02:23:42;;;;;;;2.90;2.05;;;16.60;99.90;;;;;;5076603;28;20036;-79
2022/07/12 02:26:08;;;;;;;3.80;1.90;;;16.60;99.90;;;;;;5050025;28;20040;-81
2022/07/12 02:28:33;;;;;;;2.05;1.75;;;16.60;99.90;;;;;;5040219;28;20032;-79
2022/07/12 02:30:59;;;;;;;1.88;1.65;;;16.50;99.90;;;;;;5058449;28;20607;-79
2022/07/12 02:33:24;;;;;;;2.05;1.42;;;16.50;99.90;;;;;;5083363;28;20033;-81
2022/07/12 02:35:50;;;;;;;1.90;1.70;;;16.50;99.90;;;;;;5050667;28;20029;-80
2022/07/12 02:38:15;;;;;;;3.20;1.75;;;16.50;99.90;;;;;;5064249;28;20029;-79
2022/07/12 02:40:53;;;;;;;2.53;1.85;;;16.50;99.90;;;;;;5057330;28;20040;-79
2022/07/12 02:43:26;;;;;;;2.50;1.67;;;16.50;99.90;;;;;;5059893;28;20021;-79
2022/07/12 02:45:53;;;;;;;4.60;1.90;;;16.50;99.90;;;;;;5060414;28;20025;-80
2022/07/12 02:48:19;;;;;;;2.42;1.80;;;16.50;99.90;;;;;;5055384;28;20032;-79
2022/07/12 02:50:45;;;;;;;2.50;2.00;;;16.50;99.90;;;;;;5063628;28;20032;-77
2022/07/12 02:53:11;;;;;;;3.95;1.98;;;16.50;99.90;;;;;;5047609;28;20025;-76
2022/07/12 02:55:38;;;;;;;3.22;2.05;;;16.50;99.90;;;;;;5060492;28;20486;-83
2022/07/12 02:58:07;;;;;;;2.33;1.80;;;16.50;99.90;;;;;;5065568;28;20052;-80
2022/07/12 03:00:34;;;;;;;2.28;1.90;;;16.50;99.90;;;;;;5050729;28;20017;-82
2022/07/12 03:03:00;;;;;;;2.42;1.65;;;16.40;99.90;;;;;;5053062;28;20044;-79
2022/07/12 03:05:26;;;;;;;3.45;2.20;;;16.40;99.90;;;;;;5067272;28;20125;-78
2022/07/12 03:07:51;;;;;;;1.88;1.70;;;16.30;99.90;;;;;;5053355;28;20661;-81
2022/07/12 03:10:17;;;;;;;2.72;2.40;;;16.30;99.90;;;;;;5038992;28;20032;-78
2022/07/12 03:12:42;;;;;;;2.63;1.80;;;16.30;99.90;;;;;;5061728;28;20032;-81
2022/07/12 03:15:08;;;;;;;2.47;2.20;;;16.20;99.90;;;;;;5086844;28;20032;-83
2022/07/12 03:17:34;;;;;;;2.47;2.28;;;16.30;99.90;;;;;;5086892;28;20031;-81
2022/07/12 03:20:00;;;;;;;2.47;2.20;;;16.30;99.90;;;;;;5072126;28;20031;-79
2022/07/12 03:22:25;;;;;;;2.47;2.28;;;16.30;99.90;;;;;;5089743;28;20032;-80
2022/07/12 03:24:51;;;;;;;2.58;2.10;;;16.20;99.90;;;;;;5080974;28;20035;-85
2022/07/12 03:27:17;;;;;;;5.80;2.60;;;16.30;99.90;;;;;;5067562;28;20040;-79
2022/07/12 03:29:43;;;;;;;2.20;1.90;;;16.30;99.90;;;;;;5054346;28;20047;-82
2022/07/12 03:32:09;;;;;;;4.22;2.38;;;16.20;99.90;;;;;;5089759;28;20462;-79
2022/07/12 03:34:35;;;;;;;4.07;2.22;;;16.30;99.90;;;;;;5069994;28;20029;-81
2022/07/12 03:37:01;;;;;;;3.15;2.20;;;16.30;99.90;;;;;;5064763;28;20024;-81
2022/07/12 03:39:26;;;;;;;5.13;1.98;;;16.20;99.90;;;;;;5068131;28;20115;-79
2022/07/12 03:41:52;;;;;;;3.33;2.40;;;16.30;99.90;;;;;;5050752;28;20033;-80
2022/07/12 03:44:17;;;;;;;3.05;2.08;;;16.20;99.90;;;;;;5061386;28;20057;-79
2022/07/12 03:46:43;;;;;;;2.53;2.00;;;16.20;99.90;;;;;;5050713;28;20463;-77
2022/07/12 03:49:08;;;;;;;3.50;2.45;;;16.20;99.90;;;;;;5054693;28;20047;-79
2022/07/12 03:51:34;;;;;;;2.22;2.03;;;16.20;99.90;;;;;;5059062;28;20399;-79
2022/07/12 03:53:59;;;;;;;5.47;2.70;;;16.20;99.90;;;;;;5057708;28;20032;-79
2022/07/12 03:59:09;;;;;;;2.67;2.47;;;16.10;99.90;;;;;;5071394;28;20083;-79
2022/07/12 04:01:35;;;;;;;2.88;2.03;;;16.10;99.90;;;;;;5069386;28;20170;-81
2022/07/12 04:04:01;;;;;;;2.85;2.45;;;16.10;99.90;;;;;;5071909;28;20039;-83
2022/07/12 04:06:27;;;;;;;3.88;2.50;;;16.10;99.90;;;;;;5069917;28;20028;-78
2022/07/12 04:08:52;;;;;;;3.60;2.25;;;16.10;99.90;;;;;;5064669;28;20112;-79
2022/07/12 04:11:18;;;;;;;3.03;2.45;;;16.10;99.90;;;;;;5038095;28;20626;-81
2022/07/12 04:13:43;;;;;;;5.03;2.92;;;16.10;99.90;;;;;;5060699;28;20398;-79
2022/07/12 04:16:08;;;;;;;3.33;2.30;;;16.10;99.90;;;;;;5055191;28;20040;-83
2022/07/12 04:18:34;;;;;;;7.72;2.38;;;16.10;99.90;;;;;;5067891;28;20036;-82
2022/07/12 04:20:59;;;;;;;5.13;2.47;;;16.10;99.90;;;;;;5068127;28;20120;-79
2022/07/12 04:23:25;;;;;;;3.20;2.20;;;16.20;99.90;;;;;;5073605;28;20045;-80
2022/07/12 04:25:51;;;;;;;4.22;2.67;;;16.20;99.90;;;;;;5064860;28;20036;-80
2022/07/12 04:28:17;;;;;;;5.05;2.92;;;16.10;99.90;;;;;;5064805;28;20033;-79
2022/07/12 04:30:46;;;;;;;4.35;2.90;;;16.10;99.90;;;;;;5067058;28;20031;-80
2022/07/12 04:33:12;;;;;;;6.47;3.67;;;16.00;99.90;;;;;;5048947;28;20115;-79
2022/07/12 04:35:38;;;;;;;2.90;2.53;;;16.00;99.90;;;;;;5067460;28;20047;-82
2022/07/12 04:38:04;;;;;;;4.93;2.80;;;16.00;99.90;;;;;;5059353;28;20032;-79
2022/07/12 04:40:30;;;;;;;4.93;3.85;;;16.00;99.90;;;;;;5043531;28;20059;-79
2022/07/12 04:42:56;;;;;;;3.42;2.97;;;16.00;99.90;;;;;;5056166;28;20035;-80
2022/07/12 04:45:22;;;;;;;4.22;3.25;;;15.90;99.90;;;;;;5076217;28;20045;-81
2022/07/12 04:47:47;;;;;;;3.60;3.22;;;16.00;99.90;;;;;;5059152;28;20025;-79
2022/07/12 04:50:13;;;;;;;3.15;2.85;;;15.90;99.90;;;;;;5063997;28;20036;-79
2022/07/12 04:52:38;;;;;;;4.40;3.67;;;16.00;99.90;;;;;;5048869;28;20025;-83
2022/07/12 04:55:05;;;;;;;3.03;2.63;;;16.00;99.90;;;;;;5065161;28;20467;-83
2022/07/12 04:57:31;;;;;;;3.72;3.00;;;16.00;99.90;;;;;;5066011;28;20094;-79
2022/07/12 04:59:57;;;;;;;4.22;3.17;;;16.10;99.90;;;;;;5047548;28;20025;-80
2022/07/12 05:02:22;;;;;;;3.65;2.95;;;16.10;99.90;;;;;;5069296;28;20438;-79
2022/07/12 05:04:48;;;;;;;4.10;2.75;;;16.10;99.90;;;;;;5046156;28;20021;-76
2022/07/12 05:07:13;;;;;;;4.93;2.92;;;16.20;99.90;;;;;;5062025;28;20040;-82
2022/07/12 05:09:39;;;;;;;5.60;3.22;;;16.20;99.90;;;;;;5050197;28;20144;-80
2022/07/12 05:12:05;;;;;;;3.22;2.60;;;16.30;99.90;;;;;;5050610;28;20020;-83
2022/07/12 05:14:31;;;;;;;3.83;2.58;;;16.30;99.90;;;;;;5056718;28;20036;-79
2022/07/12 05:16:56;;;;;;;3.78;2.83;;;16.40;99.90;;;;;;5086462;28;20039;-80
2022/07/12 05:19:22;;;;;;;3.58;2.90;;;16.40;99.90;;;;;;5054812;28;20059;-82
2022/07/12 05:21:48;;;;;;;4.18;2.22;;;16.50;99.90;;;;;;5069376;28;20095;-79
2022/07/12 05:24:13;;;;;;;3.95;2.17;;;16.60;99.90;;;;;;5074290;28;20035;-80
2022/07/12 05:26:39;;;;;;;3.00;2.22;;;16.60;99.90;;;;;;5066628;28;20048;-79
2022/07/12 05:29:04;;;;;;;2.65;2.10;;;16.50;99.90;;;;;;5068594;28;20063;-79
2022/07/12 05:31:30;;;;;;;5.10;2.55;;;16.50;99.90;;;;;;5067105;28;20415;-84
2022/07/12 05:33:55;;;;;;;4.68;2.38;;;16.70;99.90;;;;;;5067350;28;20036;-82
2022/07/12 05:36:21;;;;;;;4.10;2.50;;;16.70;99.90;;;;;;5067319;28;20065;-81
2022/07/12 05:38:46;;;;;;;2.65;2.33;;;16.70;99.90;;;;;;5063176;28;20028;-85
2022/07/12 05:41:12;;;;;;;2.97;2.30;;;16.80;99.90;;;;;;5082853;28;20450;-83
2022/07/12 05:43:38;;;;;;;7.10;2.38;;;16.80;99.90;;;;;;5066531;28;20028;-83
2022/07/12 05:46:04;;;;;;;3.53;1.90;;;16.90;99.90;;;;;;5058970;28;20450;-82
2022/07/12 05:48:29;;;;;;;3.85;2.17;;;16.90;99.90;;;;;;5067261;28;20039;-80
2022/07/12 05:50:55;;;;;;;4.00;1.85;;;16.90;99.90;;;;;;5066916;28;20037;-85
2022/07/12 05:53:23;;;;;;;4.88;1.83;;;17.00;99.90;;;;;;5057053;28;20028;-81
2022/07/12 05:55:51;;;;;;;6.15;2.13;;;17.10;99.90;;;;;;5069091;28;20035;-79
2022/07/12 05:58:17;;;;;;;2.00;1.80;;;17.10;99.90;;;;;;5071204;28;20090;-79
2022/07/12 06:00:43;;;;;;;4.22;2.20;;;17.10;99.90;;;;;;5065262;28;20024;-79
2022/07/12 06:03:08;;;;;;;3.03;1.85;;;17.20;99.90;;;;;;5067528;28;20024;-82
2022/07/12 06:05:34;;;;;;;2.15;1.60;;;17.20;99.90;;;;;;5050533;28;20036;-80
2022/07/12 06:07:59;;;;;;;1.83;1.70;;;17.20;99.90;;;;;;5068082;28;20071;-79
2022/07/12 06:10:25;;;;;;;2.97;1.63;;;17.30;99.90;;;;;;5068881;28;20137;-81
2022/07/12 06:12:50;;;;;;;3.80;1.65;;;17.40;99.90;;;;;;5067231;28;20035;-82
2022/07/12 06:15:16;;;;;;;2.10;1.80;;;17.50;99.90;;;;;;5068839;28;20075;-81
2022/07/12 06:17:41;;;;;;;2.42;1.90;;;17.60;99.90;;;;;;5070992;28;20036;-84
2022/07/12 06:20:07;;;;;;;4.05;1.52;;;17.60;99.90;;;;;;5069715;28;20028;-79
2022/07/12 06:22:33;;;;;;;5.93;1.90;;;17.70;99.90;;;;;;5070889;28;20037;-78
2022/07/12 06:24:58;;;;;;;2.50;1.83;;;17.80;99.90;;;;;;5070004;28;20489;-80
2022/07/12 06:27:24;;;;;;;2.33;1.50;;;17.70;99.90;;;;;;5068274;28;20032;-82
2022/07/12 06:29:51;;;;;;;2.88;1.50;;;17.70;99.90;;;;;;5062934;28;20401;-82
2022/07/12 06:32:17;;;;;;;2.78;1.60;;;17.80;99.90;;;;;;5067739;28;20032;-85
2022/07/12 06:34:42;;;;;;;7.50;1.27;;;17.80;99.40;;;;;;5083848;28;20064;-80
2022/07/12 06:37:08;;;;;;;1.88;1.45;;;17.80;99.60;;;;;;5066724;28;20037;-79
2022/07/12 06:39:35;;;;;;;2.00;1.23;;;18.00;99.80;;;;;;5058409;28;20028;-84
2022/07/12 06:42:03;;;;;;;2.40;1.50;;;18.10;99.60;;;;;;5066169;28;20043;-81
2022/07/12 06:44:30;;;;;;;2.78;1.30;;;18.20;99.20;;;;;;5065642;28;20028;-79
2022/07/12 06:46:56;;;;;;;2.85;1.55;;;18.30;99.20;;;;;;5082252;28;20033;-84
2022/07/12 06:49:21;;;;;;;2.13;1.48;;;18.40;98.50;;;;;;5049635;28;20031;-79
2022/07/12 06:51:46;;;;;;;2.05;1.48;;;18.40;98.50;;;;;;5067334;28;20107;-78
2022/07/12 06:54:12;;;;;;;4.43;1.65;;;18.40;98.30;;;;;;5072169;28;20025;-79
2022/07/12 06:56:38;;;;;;;4.32;1.20;;;18.50;98.00;;;;;;5049659;28;20624;-79
2022/07/12 06:59:03;;;;;;;2.70;1.20;;;18.60;98.00;;;;;;5068176;28;20082;-79
2022/07/12 07:01:29;;;;;;;3.45;1.08;;;18.80;97.30;;;;;;5049614;28;20185;-79
2022/07/12 07:03:54;;;;;;;1.45;0.95;;;18.80;96.90;;;;;;5067876;28;20107;-84
2022/07/12 07:06:20;;;;;;;1.70;1.13;;;18.90;96.60;;;;;;5059505;28;20721;-80
2022/07/12 07:08:45;;;;;;;2.55;1.00;;;19.00;96.30;;;;;;5068243;28;20040;-78
2022/07/12 07:11:11;;;;;;;1.75;0.98;;;19.10;96.40;;;;;;5060499;28;20048;-81
2022/07/12 07:13:36;;;;;;;3.72;1.23;;;19.20;96.20;;;;;;5051167;28;20467;-85
2022/07/12 07:16:02;;;;;;;2.47;0.93;;;19.30;95.60;;;;;;5050369;28;20029;-81
2022/07/12 07:18:27;;;;;;;1.25;1.00;;;19.40;95.70;;;;;;5070559;28;20497;-78
2022/07/12 07:20:53;;;;;;;2.35;0.98;;;19.60;95.70;;;;;;5054788;28;20485;-82
2022/07/12 07:23:19;;;;;;;2.05;0.98;;;19.80;95.00;;;;;;5070090;28;20067;-79
2022/07/12 07:25:45;;;;;;;5.03;0.90;;;19.90;94.90;;;;;;5048515;28;20041;-79
2022/07/12 07:28:11;;;;;;;2.67;0.80;;;20.10;94.50;;;;;;5058465;28;20037;-77
2022/07/12 07:30:52;;;;;;;1.98;0.80;;;20.30;94.40;;;;;;5070250;28;20024;-79
2022/07/12 07:33:19;;;;;;;1.77;0.98;;;20.50;94.00;;;;;;5056730;28;20025;-77
2022/07/12 07:35:44;;;;;;;1.73;1.05;;;20.50;93.60;;;;;;5067711;28;20180;-77
2022/07/12 07:38:10;;;;;;;1.55;0.90;;;20.50;93.60;;;;;;5067073;28;20129;-77
2022/07/12 07:40:36;;;;;;;1.02;0.80;;;20.60;93.60;;;;;;5052707;28;20481;-77
2022/07/12 07:43:02;;;;;;;4.28;1.08;;;20.80;93.80;;;;;;5070587;28;20040;-79
2022/07/12 07:45:27;;;;;;;2.80;0.90;;;20.90;93.90;;;;;;5052499;28;20448;-78
2022/07/12 07:47:52;;;;;;;1.75;0.90;;;21.10;93.50;;;;;;5053685;28;20044;-80
2022/07/12 07:50:18;;;;;;;1.75;0.55;;;21.20;92.20;;;;;;5063671;28;20024;-78
2022/07/12 07:52:44;;;;;;;3.20;0.65;;;21.30;91.90;;;;;;5077309;28;20032;-80
2022/07/12 07:55:10;;;;;;;1.45;0.60;;;21.40;91.90;;;;;;5075851;28;20028;-79
2022/07/12 07:57:35;;;;;;;2.25;0.70;;;21.50;91.10;;;;;;5070636;28;20043;-81
2022/07/12 08:00:01;;;;;;;1.02;0.80;;;21.60;90.80;;;;;;5070664;28;20033;-80
2022/07/12 08:02:27;;;;;;;1.90;0.70;;;21.70;91.00;;;;;;5070534;28;20020;-78
2022/07/12 08:04:52;;;;;;;1.73;0.70;;;21.80;91.00;;;;;;5070270;28;20051;-79
2022/07/12 08:07:18;;;;;;;2.28;0.73;;;21.90;91.40;;;;;;5086094;28;20071;-79
2022/07/12 08:09:43;;;;;;;1.63;0.60;;;22.00;89.70;;;;;;5070749;28;20509;-80
2022/07/12 08:12:09;;;;;;;9.63;3.60;;;22.10;87.90;;;;;;5070302;28;20036;-78
2022/07/12 08:14:34;;;;;;;16.90;6.55;;;22.20;87.40;;;;;;5083117;28;20119;-78
2022/07/12 08:17:00;;;;;;;11.68;4.85;;;22.20;87.90;;;;;;5052112;28;20025;-80
2022/07/12 08:19:25;;;;;;;4.78;1.50;;;22.30;88.50;;;;;;5070048;28;20041;-79
2022/07/12 08:21:51;;;;;;;3.92;1.30;;;22.40;84.90;;;;;;5070014;28;20456;-79
2022/07/12 08:24:16;;;;;;;2.33;0.63;;;22.50;86.50;;;;;;5070794;28;20047;-78
2022/07/12 08:26:43;;;;;;;4.82;1.08;;;22.60;85.80;;;;;;5070185;28;20072;-77
2022/07/12 08:29:08;;;;;;;3.85;1.67;;;22.60;84.00;;;;;;5071293;28;20078;-79
2022/07/12 08:31:34;;;;;;;2.28;0.80;;;22.50;85.30;;;;;;5067274;28;20115;-79
2022/07/12 08:34:00;;;;;;;2.05;0.68;;;22.60;84.80;;;;;;5061664;28;20032;-79
2022/07/12 08:36:25;;;;;;;2.95;0.80;;;22.80;85.00;;;;;;5069346;28;20036;-78
2022/07/12 08:38:51;;;;;;;1.10;0.50;;;23.00;85.30;;;;;;5052623;28;20419;-79
2022/07/12 08:41:16;;;;;;;1.67;0.70;;;23.20;84.50;;;;;;5069581;28;20032;-78
2022/07/12 08:43:42;;;;;;;2.35;0.75;;;23.40;81.80;;;;;;5069805;28;20029;-79
2022/07/12 08:46:10;;;;;;;1.77;0.63;;;23.40;82.80;;;;;;5069385;28;20489;-80
2022/07/12 08:48:36;;;;;;;1.02;0.52;;;23.50;82.00;;;;;;5057155;28;20310;-78
2022/07/12 08:51:10;;;;;;;3.83;0.35;;;23.50;80.20;;;;;;5051557;28;20170;-78
2022/07/12 08:53:36;;;;;;;3.67;0.52;;;23.60;80.50;;;;;;5069464;28;20037;-80
2022/07/12 08:56:03;;;;;;;5.70;0.50;;;23.80;81.00;;;;;;5050434;28;20044;-77
2022/07/12 08:58:29;;;;;;;1.83;0.68;;;23.80;80.60;;;;;;5055802;28;20183;-79
2022/07/12 09:00:55;;;;;;;1.77;0.95;;;23.80;80.80;;;;;;5072412;28;20103;-81
2022/07/12 09:03:20;;;;;;;5.60;0.57;;;24.00;79.40;;;;;;5051137;28;20109;-80
2022/07/12 09:05:54;;;;;;;2.53;0.60;;;24.10;79.60;;;;;;5051416;28;20029;-79
2022/07/12 09:08:32;;;;;;;2.53;0.47;;;24.40;80.80;;;;;;5069350;28;20493;-79
2022/07/12 09:11:00;;;;;;;1.60;0.40;;;24.50;79.10;;;;;;5068703;28;20107;-78
2022/07/12 09:13:47;;;;;;;3.40;0.50;;;24.80;79.40;;;;;;5052261;28;20032;-78
2022/07/12 09:16:14;;;;;;;4.18;0.70;;;24.90;75.60;;;;;;5084597;28;20362;-79
2022/07/12 09:18:40;;;;;;;5.38;0.50;;;25.00;75.70;;;;;;5069568;28;20028;-77
2022/07/12 09:21:06;;;;;;;1.17;0.40;;;24.90;73.80;;;;;;5050503;28;20063;-77
2022/07/12 09:23:31;;;;;;;1.33;0.40;;;24.90;74.70;;;;;;5068979;28;20043;-78
2022/07/12 09:25:56;;;;;;;1.02;0.43;;;24.90;73.80;;;;;;5050690;28;20111;-81
2022/07/12 09:28:22;;;;;;;3.13;0.60;;;24.60;74.50;;;;;;5052607;28;20121;-78
2022/07/12 09:30:53;;;;;;;5.18;1.23;;;24.50;74.40;;;;;;5069890;28;20051;-80
2022/07/12 09:36:07;;;;;;;3.67;0.80;;;24.80;76.60;;;;;;5056307;28;20031;-78
2022/07/12 09:38:48;;;;;;;1.95;0.40;;;24.90;73.10;;;;;;5069094;28;20382;-80
2022/07/12 09:41:17;;;;;;;4.25;0.60;;;24.90;73.50;;;;;;5067186;28;20093;-77
2022/07/12 09:43:44;;;;;;;0.77;0.40;;;25.00;71.90;;;;;;5072690;28;20385;-79
2022/07/12 09:46:10;;;;;;;1.38;0.55;;;25.10;70.20;;;;;;5082550;28;20037;-80
2022/07/12 09:48:37;;;;;;;3.20;0.50;;;25.00;71.90;;;;;;5089287;28;20461;-78
2022/07/12 09:51:04;;;;;;;1.60;0.40;;;25.10;72.60;;;;;;5051852;28;20048;-79
2022/07/12 09:53:33;;;;;;;2.92;0.45;;;25.20;69.80;;;;;;5069218;28;20029;-78
2022/07/12 09:56:05;;;;;;;4.32;0.57;;;25.30;70.20;;;;;;5069357;28;20036;-80
2022/07/12 09:58:35;;;;;;;0.50;0.30;;;25.40;69.40;;;;;;5068771;28;20031;-81
2022/07/12 10:01:02;;;;;;;1.80;0.50;;;25.20;68.90;;;;;;5049943;28;20029;-78
2022/07/12 10:03:31;;;;;;;2.25;0.65;;;25.20;69.70;;;;;;5049101;28;20040;-77
2022/07/12 10:05:59;;;;;;;2.40;0.50;;;25.20;70.10;;;;;;5053274;28;20032;-79
2022/07/12 10:08:25;;;;;;;0.73;0.38;;;25.40;68.70;;;;;;5067927;28;20048;-77
2022/07/12 10:10:51;;;;;;;0.80;0.43;;;25.40;69.70;;;;;;5050249;28;20051;-79
2022/07/12 10:13:19;;;;;;;1.75;0.60;;;25.60;71.30;;;;;;5053352;28;20034;-80
2022/07/12 10:15:47;;;;;;;2.05;0.50;;;25.90;70.40;;;;;;5037849;28;20549;-78
2022/07/12 10:18:21;;;;;;;1.38;0.50;;;26.10;67.40;;;;;;5050501;28;20024;-78
2022/07/12 10:20:48;;;;;;;2.35;0.75;;;26.30;68.60;;;;;;5067505;28;20598;-78
2022/07/12 10:23:19;;;;;;;0.75;0.40;;;26.40;65.60;;;;;;5068128;28;20572;-80
2022/07/12 10:25:48;;;;;;;0.45;0.40;;;26.40;65.40;;;;;;5074019;28;20111;-78
2022/07/12 10:28:13;;;;;;;8.57;4.55;;;26.40;64.90;;;;;;5043393;28;20135;-78
2022/07/12 10:30:50;;;;;;;8.32;3.75;;;26.50;64.70;;;;;;5065745;28;20477;-78
2022/07/12 10:33:20;;;;;;;13.73;8.75;;;26.60;63.90;;;;;;5049048;28;20033;-78
2022/07/12 10:36:06;;;;;;;6.57;4.10;;;26.60;63.40;;;;;;5049689;28;20040;-78
2022/07/12 10:38:33;;;;;;;3.17;1.25;;;26.50;63.30;;;;;;5057697;28;20033;-79
2022/07/12 10:41:19;;;;;;;2.75;0.98;;;26.40;65.10;;;;;;5039570;28;20102;-76
2022/07/12 10:44:04;;;;;;;4.00;1.55;;;26.50;66.70;;;;;;5058478;28;20155;-79
2022/07/12 10:46:31;;;;;;;4.50;2.33;;;26.70;65.50;;;;;;5081568;28;20029;-78
2022/07/12 10:49:26;;;;;;;0.60;0.40;;;27.00;63.60;;;;;;5043478;28;20101;-79
2022/07/12 10:52:11;;;;;;;0.50;0.35;;;27.10;63.80;;;;;;5042206;28;20403;-77
2022/07/12 10:55:08;;;;;;;2.95;0.57;;;27.10;61.80;;;;;;5065004;28;20043;-77
2022/07/12 10:57:50;;;;;;;1.60;1.00;;;27.00;62.10;;;;;;5048312;28;20051;-77
2022/07/12 11:00:16;;;;;;;10.07;1.08;;;27.00;63.70;;;;;;5074709;28;20025;-77
2022/07/12 11:02:43;;;;;;;0.68;0.30;;;27.00;62.60;;;;;;5045577;28;20409;-78
2022/07/12 11:05:09;;;;;;;0.93;0.40;;;27.10;64.30;;;;;;5064626;28;20029;-77
2022/07/12 11:07:35;;;;;;;0.45;0.30;;;27.30;59.80;;;;;;5067260;28;20031;-77
2022/07/12 11:10:00;;;;;;;0.50;0.30;;;27.30;58.80;;;;;;5059749;28;20032;-76
2022/07/12 11:12:32;;;;;;;1.40;0.30;;;27.30;62.10;;;;;;5064110;28;20390;-77
2022/07/12 11:14:59;;;;;;;2.30;0.43;;;27.30;60.60;;;;;;5081342;28;20036;-78
2022/07/12 11:17:32;;;;;;;1.67;0.40;;;27.40;61.60;;;;;;5086528;28;20033;-76
2022/07/12 11:20:09;;;;;;;1.20;0.40;;;27.40;59.90;;;;;;5071579;28;20567;-78
2022/07/12 11:22:36;;;;;;;0.50;0.30;;;27.30;60.60;;;;;;5070446;28;20068;-77
2022/07/12 11:25:03;;;;;;;0.63;0.30;;;27.30;60.60;;;;;;5060281;28;20064;-77
2022/07/12 11:27:29;;;;;;;1.55;0.30;;;27.30;57.30;;;;;;5071657;28;20084;-77
2022/07/12 11:30:03;;;;;;;0.30;0.20;;;27.20;59.00;;;;;;5053217;28;20021;-77
2022/07/12 11:32:43;;;;;;;3.65;0.20;;;27.30;60.20;;;;;;5071593;28;20028;-77
2022/07/12 11:35:22;;;;;;;0.55;0.35;;;27.30;60.00;;;;;;5071446;28;20056;-77
2022/07/12 11:37:52;;;;;;;2.15;0.40;;;27.50;60.70;;;;;;5071635;28;20048;-79
2022/07/12 11:40:29;;;;;;;3.28;0.40;;;27.60;60.80;;;;;;5052546;28;20036;-77
2022/07/12 11:42:58;;;;;;;0.40;0.30;;;27.70;60.50;;;;;;5077196;28;20097;-78
2022/07/12 11:45:28;;;;;;;0.55;0.25;;;27.80;61.30;;;;;;5088016;28;20501;-78
2022/07/12 11:47:54;;;;;;;0.63;0.20;;;27.90;60.30;;;;;;5091877;28;20020;-77
2022/07/12 11:50:20;;;;;;;1.98;0.30;;;27.90;59.90;;;;;;5069116;28;20028;-78
2022/07/12 11:52:46;;;;;;;0.85;0.20;;;28.00;59.40;;;;;;5070479;28;20028;-78
2022/07/12 11:55:11;;;;;;;1.13;0.30;;;28.10;56.20;;;;;;5054795;28;20039;-81
2022/07/12 11:57:37;;;;;;;1.58;0.38;;;28.10;56.50;;;;;;5063831;28;20031;-77
2022/07/12 12:00:32;;;;;;;5.78;1.33;;;28.10;57.00;;;;;;5090962;28;20020;-78
2022/07/12 12:02:58;;;;;;;0.70;0.30;;;28.10;57.50;;;;;;5056913;28;20036;-82
2022/07/12 12:05:24;;;;;;;0.45;0.22;;;28.10;56.90;;;;;;5047922;28;20041;-81
2022/07/12 12:07:50;;;;;;;0.52;0.40;;;28.00;58.80;;;;;;5041493;28;20068;-78
2022/07/12 12:10:17;;;;;;;2.67;0.30;;;28.10;57.70;;;;;;5050098;28;20056;-81
2022/07/12 12:12:51;;;;;;;0.85;0.30;;;28.20;57.60;;;;;;5070518;28;20454;-82
2022/07/12 12:15:24;;;;;;;0.77;0.30;;;28.40;57.30;;;;;;5089271;28;20059;-78
2022/07/12 12:17:57;;;;;;;1.35;0.50;;;28.60;56.10;;;;;;5083989;28;20778;-78
2022/07/12 12:20:23;;;;;;;0.20;0.20;;;28.80;57.00;;;;;;5070203;28;20028;-76
2022/07/12 12:22:51;;;;;;;0.68;0.30;;;29.00;56.80;;;;;;5070711;28;20020;-77
2022/07/12 12:25:16;;;;;;;0.32;0.20;;;29.10;57.60;;;;;;5070331;28;20036;-78
2022/07/12 12:27:57;;;;;;;1.92;0.50;;;29.20;54.90;;;;;;5103764;28;20028;-77
2022/07/12 12:30:23;;;;;;;0.50;0.22;;;29.10;55.80;;;;;;5062510;28;20052;-78
2022/07/12 12:32:57;;;;;;;0.70;0.38;;;29.10;55.00;;;;;;5069410;28;20028;-77
2022/07/12 12:35:29;;;;;;;0.63;0.30;;;29.20;54.30;;;;;;5051323;28;20029;-78
2022/07/12 12:38:00;;;;;;;0.50;0.20;;;29.10;54.70;;;;;;5061043;28;20504;-79
2022/07/12 12:40:31;;;;;;;0.68;0.30;;;29.20;54.70;;;;;;5070293;28;20071;-79
2022/07/12 12:43:08;;;;;;;2.88;0.30;;;29.50;54.00;;;;;;5055472;28;20036;-79
2022/07/12 12:45:33;;;;;;;4.03;0.30;;;29.60;53.70;;;;;;5070950;28;20123;-75
2022/07/12 12:48:05;;;;;;;1.20;0.30;;;29.70;54.40;;;;;;5061113;28;20468;-78
2022/07/12 12:50:45;;;;;;;0.57;0.30;;;29.80;54.30;;;;;;5072477;28;20032;-78
2022/07/12 12:53:18;;;;;;;1.40;0.47;;;29.80;54.10;;;;;;5051704;28;20090;-80